• Join FlightAware (Why Join?)
  • Login
  • US Flag 
12:45AM EDT


 

Airport Tracker/Info


-or-


 

Live Flight TrackerFlight Track Log ✈ UAL6012 ✈ 22-Apr-2013 ✈ KIAD - KTYS

Flight Track Log - Related Links

Times and Time Zones

All times are in EDT time to prevent confusion due to time zone crossing. See the UAL6012 flight status page for this flight to view local times or setup timezone preferences in your user account.

Time Position Orientation Groundspeed Altitude Reporting Facility
EDT Latitude Longitude Course Direction KTS MPH feet Rate Location/Type
05:27PM 38.9167 -77.5500 234° Southwest 214 246 3,200  Level Potomac TRACON
05:28PM 38.8500 -77.6000 210° Southwest 249 287 5,600 2,520 Climbing Potomac TRACON
05:29PM 38.6854 -77.6146 218° Southwest  Level FlightAware Approximate
05:29PM 38.8000 -77.6333 207° Southwest 252 290 8,300  Level Potomac TRACON
05:30PM 38.5969 -77.6546 197° South  Level FlightAware Approximate
05:30PM 38.7625 -77.6417 190° South 256 295 9,300  Level Washington Center
05:31PM 38.5130 -77.7070 210° Southwest  Level FlightAware Approximate
05:31PM 38.6892 -77.6608 192° South 286 329 11,000  Level Washington Center
05:32PM 38.4581 -77.7983 234° Southwest  Level FlightAware Approximate
05:32PM 38.6014 -77.6797 190° South 323 372 12,200  Level Washington Center
05:33PM 38.5192 -77.7278 205° Southwest 323 372 13,600 1,380 Climbing Washington Center
05:34PM 38.4569 -77.8242 231° Southwest 323 372 15,000 1,260 Climbing Washington Center
05:35PM 38.4028 -77.9283 236° Southwest 343 395 16,200 1,200 Climbing Washington Center
05:36PM 38.3486 -78.0328 237° Southwest 356 410 17,500 1,140 Climbing Washington Center
05:37PM 38.2944 -78.1367 236° Southwest 362 417 18,500 1,140 Climbing Washington Center
05:38PM 38.2378 -78.2458 237° Southwest 367 422 19,800 1,260 Climbing Washington Center
05:39PM 38.1792 -78.3519 235° Southwest 367 422 21,100 1,260 Climbing Washington Center
05:40PM 38.1244 -78.4608 237° Southwest 372 428 22,400 1,380 Climbing Washington Center
05:41PM 38.0817 -78.5886 247° West 360 414 23,900 1,260 Climbing Washington Center
05:42PM 38.0411 -78.7083 247° West 360 414 25,000 1,080 Climbing Washington Center
05:43PM 38.0025 -78.8253 247° West 360 414 26,100 1,080 Climbing Washington Center
05:44PM 37.9619 -78.9394 246° West 365 420 27,200 1,020 Climbing Washington Center
05:45PM 37.9275 -79.0431 247° West 365 420 28,200 1,020 Climbing Washington Center
05:46PM 37.8828 -79.1517 242° Southwest 360 414 29,300 1,080 Climbing Washington Center
05:47PM 37.8317 -79.2544 238° Southwest 350 403 30,400 1,200 Climbing Washington Center
05:48PM 37.7761 -79.3672 238° Southwest 345 397 31,700 780 Climbing Washington Center
05:49PM 37.7247 -79.4725 238° Southwest 350 403 32,000 120 Climbing Washington Center
05:50PM 37.6669 -79.5797 236° Southwest 372 428 32,000  Level Washington Center
05:52PM 37.5728 -79.7714 238° Southwest 397 457 32,000  Level Atlanta Center
05:53PM 37.5142 -79.8794 236° Southwest 392 451 32,000  Level Atlanta Center
05:54PM 37.4575 -79.9947 238° Southwest 392 451 32,000  Level Atlanta Center
05:55PM 37.3928 -80.1183 237° Southwest 387 445 32,000  Level Atlanta Center
05:56PM 37.3336 -80.2308 237° Southwest 387 445 32,000  Level Atlanta Center
05:57PM 37.2767 -80.3431 237° Southwest 387 445 32,000  Level Atlanta Center
05:58PM 37.2194 -80.4528 237° Southwest 387 445 32,000  Level Atlanta Center
05:59PM 37.1681 -80.5539 237° Southwest 387 445 32,000 -180 Level Atlanta Center
06:00PM 37.1089 -80.6658 236° Southwest 382 440 31,700 -960 Descending Atlanta Center
06:01PM 37.0597 -80.7825 242° Southwest 382 440 30,100 -900 Descending Atlanta Center
06:02PM 37.0111 -80.9197 246° West 388 447 30,000 -240 Descending Atlanta Center
06:03PM 36.9664 -81.0436 246° West 388 447 29,700 -540 Descending Atlanta Center
06:04PM 36.9214 -81.1725 246° West 393 452 29,000 -360 Descending Atlanta Center
06:05PM 36.8744 -81.2986 245° Southwest 399 459 29,000  Level Atlanta Center
06:06PM 36.8353 -81.4142 247° West 408 470 29,000  Level Atlanta Center
06:07PM 36.7878 -81.5428 245° Southwest 408 470 29,000  Level Atlanta Center
06:08PM 36.7444 -81.6736 248° West 408 470 29,000  Level Atlanta Center
06:09PM 36.6908 -81.8125 244° Southwest 408 470 29,000  Level Atlanta Center
06:10PM 36.6453 -81.9431 247° West 402 463 29,000 -600 Level Atlanta Center
06:11PM 36.5972 -82.0736 245° Southwest 407 468 27,800 -1,380 Descending Atlanta Center
06:12PM 36.5492 -82.1989 245° Southwest 407 468 26,300 -1,560 Descending Atlanta Center
06:13PM 36.4989 -82.3292 244° Southwest 412 474 24,700 -1,560 Descending Atlanta Center
06:14PM 36.4506 -82.4567 245° Southwest 412 474 23,200 -1,560 Descending Atlanta Center
06:15PM 36.4042 -82.5864 246° West 407 468 21,600 -1,560 Descending Atlanta Center
06:16PM 36.3578 -82.7111 245° Southwest 402 463 20,100 -1,560 Descending Atlanta Center
06:17PM 36.3111 -82.8356 245° Southwest 402 463 18,500 -1,500 Descending Atlanta Center
06:18PM 36.2661 -82.9547 245° Southwest 394 453 17,200 -1,500 Descending Atlanta Center
06:19PM 36.2214 -83.0761 245° Southwest 388 447 15,600 -1,560 Descending Atlanta Center
06:20PM 36.1764 -83.1900 244° Southwest 376 433 14,100 -1,560 Descending Atlanta Center
06:21PM 36.1333 -83.3033 245° Southwest 371 427 12,500 -1,560 Descending Atlanta Center
06:22PM 36.0961 -83.3989 244° Southwest 346 398 11,000 -1,560 Descending Atlanta Center
06:23PM 36.0633 -83.4864 245° Southwest 293 337 9,400 -1,560 Descending Atlanta Center
06:24PM 36.0136 -83.5536 228° Southwest 267 307 7,900 -1,200 Descending Atlanta Center
06:25PM 35.9658 -83.6181 228° Southwest 267 307 7,000 -480 Descending Atlanta Center
06:26PM 35.9181 -83.6797 226° Southwest 262 302 7,000  Level Atlanta Center
06:27PM 35.8681 -83.7442 226° Southwest 262 302 7,000 -600 Level Atlanta Center
06:28PM 35.8056 -83.7775 203° Southwest 244 281 5,900 -1,020 Descending Atlanta Center
06:29PM 35.7744 -83.8569 244° Southwest 244 281 5,000 -540 Descending Atlanta Center
06:30PM 35.7494 -83.9286 247° West 244 281 4,900 -120 Descending Atlanta Center
06:32PM 35.8000 -83.9833 219° Southwest  Level FlightAware Approximate
06:39PM 35.8110 -83.9940 219° Southwest  Level Estimated
06:40PM 35.8110 -83.9940 219° Southwest  Level Estimated
06:41PM 35.8110 -83.9940 219° Southwest  Level Estimated